sensor_id;sensor_type;location;lat;lon;timestamp;P1;durP1;ratioP1;P2;durP2;ratioP2
38499;SDS011;24269;51.894;4.622;2022-08-25T00:00:36;24.33;;;19.65;;
38499;SDS011;24269;51.894;4.622;2022-08-25T00:03:05;25.20;;;19.75;;
38499;SDS011;24269;51.894;4.622;2022-08-25T00:05:32;24.05;;;20.23;;
38499;SDS011;24269;51.894;4.622;2022-08-25T00:07:57;23.98;;;21.33;;
38499;SDS011;24269;51.894;4.622;2022-08-25T00:10:23;23.50;;;20.15;;
38499;SDS011;24269;51.894;4.622;2022-08-25T00:12:49;23.00;;;20.50;;
38499;SDS011;24269;51.894;4.622;2022-08-25T00:15:14;25.42;;;21.58;;
38499;SDS011;24269;51.894;4.622;2022-08-25T00:17:40;23.92;;;21.30;;
38499;SDS011;24269;51.894;4.622;2022-08-25T00:20:06;25.17;;;20.38;;
38499;SDS011;24269;51.894;4.622;2022-08-25T00:22:33;26.65;;;22.83;;
38499;SDS011;24269;51.894;4.622;2022-08-25T00:25:00;27.35;;;23.85;;
38499;SDS011;24269;51.894;4.622;2022-08-25T00:27:25;27.50;;;23.52;;
38499;SDS011;24269;51.894;4.622;2022-08-25T00:29:51;26.17;;;22.25;;
38499;SDS011;24269;51.894;4.622;2022-08-25T00:32:17;28.27;;;23.75;;
38499;SDS011;24269;51.894;4.622;2022-08-25T00:34:43;30.83;;;24.05;;
38499;SDS011;24269;51.894;4.622;2022-08-25T00:37:09;26.98;;;24.08;;
38499;SDS011;24269;51.894;4.622;2022-08-25T00:39:35;30.98;;;25.00;;
38499;SDS011;24269;51.894;4.622;2022-08-25T00:42:02;26.35;;;23.48;;
38499;SDS011;24269;51.894;4.622;2022-08-25T00:44:30;26.40;;;23.50;;
38499;SDS011;24269;51.894;4.622;2022-08-25T00:46:59;26.25;;;23.45;;
38499;SDS011;24269;51.894;4.622;2022-08-25T00:49:28;28.33;;;24.08;;
38499;SDS011;24269;51.894;4.622;2022-08-25T00:52:13;25.98;;;23.27;;
38499;SDS011;24269;51.894;4.622;2022-08-25T00:57:14;27.83;;;24.33;;
38499;SDS011;24269;51.894;4.622;2022-08-25T00:59:43;27.33;;;24.42;;
38499;SDS011;24269;51.894;4.622;2022-08-25T01:02:10;30.13;;;27.00;;
38499;SDS011;24269;51.894;4.622;2022-08-25T01:04:36;27.15;;;24.10;;
38499;SDS011;24269;51.894;4.622;2022-08-25T01:07:03;29.88;;;26.55;;
38499;SDS011;24269;51.894;4.622;2022-08-25T01:09:31;29.48;;;25.50;;
38499;SDS011;24269;51.894;4.622;2022-08-25T01:11:57;29.58;;;26.38;;
38499;SDS011;24269;51.894;4.622;2022-08-25T01:14:24;31.00;;;24.80;;
38499;SDS011;24269;51.894;4.622;2022-08-25T01:16:51;28.52;;;25.52;;
38499;SDS011;24269;51.894;4.622;2022-08-25T01:19:18;28.52;;;25.38;;
38499;SDS011;24269;51.894;4.622;2022-08-25T01:21:46;28.50;;;25.35;;
38499;SDS011;24269;51.894;4.622;2022-08-25T01:24:22;29.35;;;26.05;;
38499;SDS011;24269;51.894;4.622;2022-08-25T01:26:49;28.02;;;25.13;;
38499;SDS011;24269;51.894;4.622;2022-08-25T01:29:15;31.35;;;27.08;;
38499;SDS011;24269;51.894;4.622;2022-08-25T01:31:59;30.27;;;27.10;;
38499;SDS011;24269;51.894;4.622;2022-08-25T01:34:30;29.55;;;26.35;;
38499;SDS011;24269;51.894;4.622;2022-08-25T01:36:58;28.65;;;25.55;;
38499;SDS011;24269;51.894;4.622;2022-08-25T01:39:25;28.70;;;25.70;;
38499;SDS011;24269;51.894;4.622;2022-08-25T01:44:28;29.00;;;25.13;;
38499;SDS011;24269;51.894;4.622;2022-08-25T01:46:57;29.65;;;26.48;;
38499;SDS011;24269;51.894;4.622;2022-08-25T01:49:24;29.17;;;26.08;;
38499;SDS011;24269;51.894;4.622;2022-08-25T01:51:51;30.73;;;27.50;;
38499;SDS011;24269;51.894;4.622;2022-08-25T01:54:20;30.13;;;26.98;;
38499;SDS011;24269;51.894;4.622;2022-08-25T01:56:46;33.58;;;29.92;;
38499;SDS011;24269;51.894;4.622;2022-08-25T01:59:13;31.80;;;27.90;;
38499;SDS011;24269;51.894;4.622;2022-08-25T02:01:41;33.75;;;30.05;;
38499;SDS011;24269;51.894;4.622;2022-08-25T02:04:07;34.85;;;31.13;;
38499;SDS011;24269;51.894;4.622;2022-08-25T02:06:33;36.97;;;32.38;;
38499;SDS011;24269;51.894;4.622;2022-08-25T02:09:01;35.55;;;30.77;;
38499;SDS011;24269;51.894;4.622;2022-08-25T02:11:32;39.50;;;31.73;;
38499;SDS011;24269;51.894;4.622;2022-08-25T02:13:59;35.38;;;30.25;;
38499;SDS011;24269;51.894;4.622;2022-08-25T02:16:26;30.52;;;27.33;;
38499;SDS011;24269;51.894;4.622;2022-08-25T02:18:54;35.00;;;31.20;;
38499;SDS011;24269;51.894;4.622;2022-08-25T02:21:21;34.85;;;31.23;;
38499;SDS011;24269;51.894;4.622;2022-08-25T02:23:46;32.25;;;28.92;;
38499;SDS011;24269;51.894;4.622;2022-08-25T02:26:13;34.30;;;30.70;;
38499;SDS011;24269;51.894;4.622;2022-08-25T02:28:43;32.80;;;29.58;;
38499;SDS011;24269;51.894;4.622;2022-08-25T02:31:13;34.40;;;30.75;;
38499;SDS011;24269;51.894;4.622;2022-08-25T02:33:39;33.83;;;30.25;;
38499;SDS011;24269;51.894;4.622;2022-08-25T02:36:05;33.53;;;29.45;;
38499;SDS011;24269;51.894;4.622;2022-08-25T02:38:31;32.53;;;29.17;;
38499;SDS011;24269;51.894;4.622;2022-08-25T02:40:58;33.92;;;30.27;;
38499;SDS011;24269;51.894;4.622;2022-08-25T02:43:24;32.22;;;28.85;;
38499;SDS011;24269;51.894;4.622;2022-08-25T02:45:51;33.33;;;29.92;;
38499;SDS011;24269;51.894;4.622;2022-08-25T02:48:18;31.67;;;28.38;;
38499;SDS011;24269;51.894;4.622;2022-08-25T02:50:47;33.22;;;29.83;;
38499;SDS011;24269;51.894;4.622;2022-08-25T02:53:15;33.90;;;29.42;;
38499;SDS011;24269;51.894;4.622;2022-08-25T02:55:42;32.58;;;29.15;;
38499;SDS011;24269;51.894;4.622;2022-08-25T02:58:07;32.08;;;28.73;;
38499;SDS011;24269;51.894;4.622;2022-08-25T03:00:34;31.98;;;28.60;;
38499;SDS011;24269;51.894;4.622;2022-08-25T03:03:00;29.42;;;26.35;;
38499;SDS011;24269;51.894;4.622;2022-08-25T03:05:26;29.00;;;25.83;;
38499;SDS011;24269;51.894;4.622;2022-08-25T03:07:51;29.45;;;26.45;;
38499;SDS011;24269;51.894;4.622;2022-08-25T03:10:17;28.50;;;25.63;;
38499;SDS011;24269;51.894;4.622;2022-08-25T03:12:43;29.13;;;26.13;;
38499;SDS011;24269;51.894;4.622;2022-08-25T03:15:10;27.35;;;24.48;;
38499;SDS011;24269;51.894;4.622;2022-08-25T03:17:37;29.05;;;26.05;;
38499;SDS011;24269;51.894;4.622;2022-08-25T03:20:04;28.88;;;25.73;;
38499;SDS011;24269;51.894;4.622;2022-08-25T03:22:31;26.38;;;23.77;;
38499;SDS011;24269;51.894;4.622;2022-08-25T03:24:57;25.65;;;23.05;;
38499;SDS011;24269;51.894;4.622;2022-08-25T03:27:42;24.48;;;21.88;;
38499;SDS011;24269;51.894;4.622;2022-08-25T03:30:08;23.90;;;21.50;;
38499;SDS011;24269;51.894;4.622;2022-08-25T03:32:35;23.45;;;21.05;;
38499;SDS011;24269;51.894;4.622;2022-08-25T03:35:01;23.23;;;20.35;;
38499;SDS011;24269;51.894;4.622;2022-08-25T03:37:27;21.42;;;19.33;;
38499;SDS011;24269;51.894;4.622;2022-08-25T03:39:52;21.40;;;19.23;;
38499;SDS011;24269;51.894;4.622;2022-08-25T03:42:18;20.35;;;18.25;;
38499;SDS011;24269;51.894;4.622;2022-08-25T03:44:44;22.10;;;18.73;;
38499;SDS011;24269;51.894;4.622;2022-08-25T03:47:09;21.10;;;18.23;;
38499;SDS011;24269;51.894;4.622;2022-08-25T03:49:35;19.02;;;16.80;;
38499;SDS011;24269;51.894;4.622;2022-08-25T03:52:01;19.90;;;17.85;;
38499;SDS011;24269;51.894;4.622;2022-08-25T03:54:27;19.85;;;17.42;;
38499;SDS011;24269;51.894;4.622;2022-08-25T03:56:53;18.60;;;16.65;;
38499;SDS011;24269;51.894;4.622;2022-08-25T03:59:19;18.40;;;16.60;;
38499;SDS011;24269;51.894;4.622;2022-08-25T04:01:45;18.63;;;16.67;;
38499;SDS011;24269;51.894;4.622;2022-08-25T04:04:13;19.50;;;17.45;;
38499;SDS011;24269;51.894;4.622;2022-08-25T04:06:40;18.55;;;16.15;;
38499;SDS011;24269;51.894;4.622;2022-08-25T04:09:07;19.60;;;16.73;;
38499;SDS011;24269;51.894;4.622;2022-08-25T04:11:34;18.42;;;16.10;;
38499;SDS011;24269;51.894;4.622;2022-08-25T04:14:00;19.05;;;17.15;;
38499;SDS011;24269;51.894;4.622;2022-08-25T04:16:27;19.52;;;16.75;;
38499;SDS011;24269;51.894;4.622;2022-08-25T04:18:55;18.42;;;16.52;;
38499;SDS011;24269;51.894;4.622;2022-08-25T04:21:23;18.35;;;16.35;;
38499;SDS011;24269;51.894;4.622;2022-08-25T04:23:49;18.75;;;16.73;;
38499;SDS011;24269;51.894;4.622;2022-08-25T04:26:17;19.13;;;17.15;;
38499;SDS011;24269;51.894;4.622;2022-08-25T04:28:44;20.23;;;17.13;;
38499;SDS011;24269;51.894;4.622;2022-08-25T04:31:10;19.85;;;17.00;;
38499;SDS011;24269;51.894;4.622;2022-08-25T04:33:38;19.92;;;17.00;;
38499;SDS011;24269;51.894;4.622;2022-08-25T04:36:05;19.20;;;17.30;;
38499;SDS011;24269;51.894;4.622;2022-08-25T04:38:33;19.15;;;17.25;;
38499;SDS011;24269;51.894;4.622;2022-08-25T04:41:00;17.95;;;16.15;;
38499;SDS011;24269;51.894;4.622;2022-08-25T04:43:28;22.00;;;18.55;;
38499;SDS011;24269;51.894;4.622;2022-08-25T04:45:55;21.98;;;17.92;;
38499;SDS011;24269;51.894;4.622;2022-08-25T04:48:21;19.05;;;16.85;;
38499;SDS011;24269;51.894;4.622;2022-08-25T04:50:47;20.35;;;18.10;;
38499;SDS011;24269;51.894;4.622;2022-08-25T04:53:12;19.88;;;17.85;;
38499;SDS011;24269;51.894;4.622;2022-08-25T04:55:41;19.00;;;16.77;;
38499;SDS011;24269;51.894;4.622;2022-08-25T04:58:09;20.60;;;16.33;;
38499;SDS011;24269;51.894;4.622;2022-08-25T05:00:36;18.83;;;16.88;;
38499;SDS011;24269;51.894;4.622;2022-08-25T05:03:03;19.65;;;17.55;;
38499;SDS011;24269;51.894;4.622;2022-08-25T05:05:29;21.70;;;16.27;;
38499;SDS011;24269;51.894;4.622;2022-08-25T05:07:56;19.17;;;15.75;;
38499;SDS011;24269;51.894;4.622;2022-08-25T05:10:21;18.52;;;16.17;;
38499;SDS011;24269;51.894;4.622;2022-08-25T05:12:47;17.63;;;15.70;;
38499;SDS011;24269;51.894;4.622;2022-08-25T05:15:13;17.85;;;15.48;;
38499;SDS011;24269;51.894;4.622;2022-08-25T05:17:57;18.45;;;16.15;;
38499;SDS011;24269;51.894;4.622;2022-08-25T05:20:23;17.88;;;15.90;;
38499;SDS011;24269;51.894;4.622;2022-08-25T05:22:49;17.67;;;15.85;;
38499;SDS011;24269;51.894;4.622;2022-08-25T05:25:15;16.98;;;15.18;;
38499;SDS011;24269;51.894;4.622;2022-08-25T05:27:41;17.95;;;16.08;;
38499;SDS011;24269;51.894;4.622;2022-08-25T05:30:07;18.75;;;16.38;;
38499;SDS011;24269;51.894;4.622;2022-08-25T05:32:34;18.38;;;15.57;;
38499;SDS011;24269;51.894;4.622;2022-08-25T05:35:00;19.42;;;15.82;;
38499;SDS011;24269;51.894;4.622;2022-08-25T05:37:26;17.58;;;15.70;;
38499;SDS011;24269;51.894;4.622;2022-08-25T05:39:51;19.67;;;17.13;;
38499;SDS011;24269;51.894;4.622;2022-08-25T05:42:17;19.88;;;16.30;;
38499;SDS011;24269;51.894;4.622;2022-08-25T05:44:43;21.00;;;16.42;;
38499;SDS011;24269;51.894;4.622;2022-08-25T05:47:08;22.48;;;16.85;;
38499;SDS011;24269;51.894;4.622;2022-08-25T05:49:34;19.75;;;16.23;;
38499;SDS011;24269;51.894;4.622;2022-08-25T05:52:00;18.10;;;16.08;;
38499;SDS011;24269;51.894;4.622;2022-08-25T05:54:25;20.88;;;16.15;;
38499;SDS011;24269;51.894;4.622;2022-08-25T05:56:51;20.20;;;15.95;;
38499;SDS011;24269;51.894;4.622;2022-08-25T05:59:16;19.75;;;15.70;;
38499;SDS011;24269;51.894;4.622;2022-08-25T06:01:42;18.27;;;16.13;;
38499;SDS011;24269;51.894;4.622;2022-08-25T06:04:26;18.52;;;15.30;;
38499;SDS011;24269;51.894;4.622;2022-08-25T06:06:52;17.83;;;15.68;;
38499;SDS011;24269;51.894;4.622;2022-08-25T06:09:19;22.83;;;15.45;;
38499;SDS011;24269;51.894;4.622;2022-08-25T06:11:46;16.98;;;15.25;;
38499;SDS011;24269;51.894;4.622;2022-08-25T06:14:12;18.13;;;14.45;;
38499;SDS011;24269;51.894;4.622;2022-08-25T06:16:38;16.75;;;15.05;;
38499;SDS011;24269;51.894;4.622;2022-08-25T06:19:04;16.65;;;14.88;;
38499;SDS011;24269;51.894;4.622;2022-08-25T06:21:32;18.52;;;13.77;;
38499;SDS011;24269;51.894;4.622;2022-08-25T06:23:57;18.90;;;13.95;;
38499;SDS011;24269;51.894;4.622;2022-08-25T06:26:23;20.60;;;14.40;;
38499;SDS011;24269;51.894;4.622;2022-08-25T06:28:49;17.30;;;14.07;;
38499;SDS011;24269;51.894;4.622;2022-08-25T06:31:15;15.60;;;13.70;;
38499;SDS011;24269;51.894;4.622;2022-08-25T06:33:41;18.33;;;13.77;;
38499;SDS011;24269;51.894;4.622;2022-08-25T06:36:08;16.08;;;12.80;;
38499;SDS011;24269;51.894;4.622;2022-08-25T06:38:34;16.90;;;13.02;;
38499;SDS011;24269;51.894;4.622;2022-08-25T06:41:01;17.08;;;13.70;;
38499;SDS011;24269;51.894;4.622;2022-08-25T06:43:27;17.38;;;13.68;;
38499;SDS011;24269;51.894;4.622;2022-08-25T06:45:53;14.80;;;12.85;;
38499;SDS011;24269;51.894;4.622;2022-08-25T06:48:19;16.27;;;12.95;;
38499;SDS011;24269;51.894;4.622;2022-08-25T06:50:45;16.15;;;13.00;;
38499;SDS011;24269;51.894;4.622;2022-08-25T06:53:11;15.07;;;12.07;;
38499;SDS011;24269;51.894;4.622;2022-08-25T06:55:36;15.57;;;12.63;;
38499;SDS011;24269;51.894;4.622;2022-08-25T06:58:03;17.55;;;13.05;;
38499;SDS011;24269;51.894;4.622;2022-08-25T07:00:29;19.25;;;12.60;;
38499;SDS011;24269;51.894;4.622;2022-08-25T07:02:55;14.35;;;12.48;;
38499;SDS011;24269;51.894;4.622;2022-08-25T07:05:20;13.77;;;12.38;;
38499;SDS011;24269;51.894;4.622;2022-08-25T07:07:46;15.82;;;12.30;;
38499;SDS011;24269;51.894;4.622;2022-08-25T07:10:13;17.70;;;12.45;;
38499;SDS011;24269;51.894;4.622;2022-08-25T07:12:38;17.75;;;12.50;;
38499;SDS011;24269;51.894;4.622;2022-08-25T07:15:04;14.75;;;11.40;;
38499;SDS011;24269;51.894;4.622;2022-08-25T07:17:30;16.52;;;11.85;;
38499;SDS011;24269;51.894;4.622;2022-08-25T07:19:56;19.40;;;11.43;;
38499;SDS011;24269;51.894;4.622;2022-08-25T07:22:21;13.45;;;10.48;;
38499;SDS011;24269;51.894;4.622;2022-08-25T07:24:47;15.50;;;10.98;;
38499;SDS011;24269;51.894;4.622;2022-08-25T07:27:13;15.65;;;11.13;;
38499;SDS011;24269;51.894;4.622;2022-08-25T07:29:38;12.32;;;9.77;;
38499;SDS011;24269;51.894;4.622;2022-08-25T07:32:05;13.15;;;9.52;;
38499;SDS011;24269;51.894;4.622;2022-08-25T07:34:31;14.35;;;9.52;;
38499;SDS011;24269;51.894;4.622;2022-08-25T07:37:16;14.10;;;9.38;;
38499;SDS011;24269;51.894;4.622;2022-08-25T07:39:42;12.18;;;7.93;;
38499;SDS011;24269;51.894;4.622;2022-08-25T07:42:08;13.70;;;8.02;;
38499;SDS011;24269;51.894;4.622;2022-08-25T07:44:36;11.25;;;7.47;;
38499;SDS011;24269;51.894;4.622;2022-08-25T07:47:01;11.30;;;7.35;;
38499;SDS011;24269;51.894;4.622;2022-08-25T07:49:27;12.40;;;7.15;;
38499;SDS011;24269;51.894;4.622;2022-08-25T07:51:53;11.02;;;6.63;;
38499;SDS011;24269;51.894;4.622;2022-08-25T07:54:19;11.50;;;6.82;;
38499;SDS011;24269;51.894;4.622;2022-08-25T07:56:45;10.85;;;6.38;;
38499;SDS011;24269;51.894;4.622;2022-08-25T07:59:11;11.15;;;6.35;;
38499;SDS011;24269;51.894;4.622;2022-08-25T08:01:37;9.60;;;5.65;;
38499;SDS011;24269;51.894;4.622;2022-08-25T08:04:04;10.60;;;5.47;;
38499;SDS011;24269;51.894;4.622;2022-08-25T08:06:29;10.52;;;6.30;;
38499;SDS011;24269;51.894;4.622;2022-08-25T08:08:55;10.57;;;5.07;;
38499;SDS011;24269;51.894;4.622;2022-08-25T08:11:31;9.80;;;5.05;;
38499;SDS011;24269;51.894;4.622;2022-08-25T08:13:58;10.02;;;5.28;;
38499;SDS011;24269;51.894;4.622;2022-08-25T08:16:26;10.70;;;5.22;;
38499;SDS011;24269;51.894;4.622;2022-08-25T08:18:53;11.65;;;4.45;;
38499;SDS011;24269;51.894;4.622;2022-08-25T08:21:21;10.30;;;5.60;;
38499;SDS011;24269;51.894;4.622;2022-08-25T08:23:48;9.02;;;5.00;;
38499;SDS011;24269;51.894;4.622;2022-08-25T08:26:16;11.00;;;4.90;;
38499;SDS011;24269;51.894;4.622;2022-08-25T08:28:42;9.57;;;4.80;;
38499;SDS011;24269;51.894;4.622;2022-08-25T08:31:08;9.13;;;4.00;;
38499;SDS011;24269;51.894;4.622;2022-08-25T08:33:34;7.80;;;4.40;;
38499;SDS011;24269;51.894;4.622;2022-08-25T08:36:00;10.40;;;3.75;;
38499;SDS011;24269;51.894;4.622;2022-08-25T08:38:31;7.28;;;3.38;;
38499;SDS011;24269;51.894;4.622;2022-08-25T08:50:09;12.93;;;4.03;;
38499;SDS011;24269;51.894;4.622;2022-08-25T08:52:51;8.07;;;3.67;;
38499;SDS011;24269;51.894;4.622;2022-08-25T08:57:56;7.50;;;3.40;;
38499;SDS011;24269;51.894;4.622;2022-08-25T09:00:24;10.13;;;3.50;;
38499;SDS011;24269;51.894;4.622;2022-08-25T09:03:03;7.70;;;3.35;;
38499;SDS011;24269;51.894;4.622;2022-08-25T09:05:33;10.20;;;3.47;;
38499;SDS011;24269;51.894;4.622;2022-08-25T09:08:08;7.53;;;3.47;;
38499;SDS011;24269;51.894;4.622;2022-08-25T09:10:56;6.65;;;2.95;;
38499;SDS011;24269;51.894;4.622;2022-08-25T09:16:11;7.55;;;2.95;;
38499;SDS011;24269;51.894;4.622;2022-08-25T09:29:56;8.05;;;3.05;;
38499;SDS011;24269;51.894;4.622;2022-08-25T09:32:29;7.05;;;3.00;;
38499;SDS011;24269;51.894;4.622;2022-08-25T09:35:08;7.85;;;2.90;;
38499;SDS011;24269;51.894;4.622;2022-08-25T09:40:42;8.15;;;3.00;;
38499;SDS011;24269;51.894;4.622;2022-08-25T09:43:44;5.55;;;2.70;;
38499;SDS011;24269;51.894;4.622;2022-08-25T09:48:51;9.13;;;2.85;;
38499;SDS011;24269;51.894;4.622;2022-08-25T09:56:22;8.27;;;3.35;;
38499;SDS011;24269;51.894;4.622;2022-08-25T09:58:51;8.05;;;3.15;;
38499;SDS011;24269;51.894;4.622;2022-08-25T10:03:34;8.40;;;3.25;;
38499;SDS011;24269;51.894;4.622;2022-08-25T10:08:36;5.35;;;3.08;;
38499;SDS011;24269;51.894;4.622;2022-08-25T10:11:36;6.53;;;2.90;;
38499;SDS011;24269;51.894;4.622;2022-08-25T10:16:45;7.10;;;2.90;;
38499;SDS011;24269;51.894;4.622;2022-08-25T10:19:26;11.40;;;3.45;;
38499;SDS011;24269;51.894;4.622;2022-08-25T10:22:04;7.38;;;2.88;;
38499;SDS011;24269;51.894;4.622;2022-08-25T10:24:30;8.40;;;3.13;;
38499;SDS011;24269;51.894;4.622;2022-08-25T10:29:30;6.53;;;2.63;;
38499;SDS011;24269;51.894;4.622;2022-08-25T10:32:26;8.20;;;2.72;;
38499;SDS011;24269;51.894;4.622;2022-08-25T10:34:57;5.60;;;2.80;;
38499;SDS011;24269;51.894;4.622;2022-08-25T10:40:21;8.00;;;2.88;;
38499;SDS011;24269;51.894;4.622;2022-08-25T10:43:06;7.47;;;2.70;;
38499;SDS011;24269;51.894;4.622;2022-08-25T10:45:52;7.18;;;2.60;;
38499;SDS011;24269;51.894;4.622;2022-08-25T10:56:40;8.18;;;2.88;;
38499;SDS011;24269;51.894;4.622;2022-08-25T10:59:19;6.47;;;2.70;;
38499;SDS011;24269;51.894;4.622;2022-08-25T11:02:07;6.85;;;2.90;;
38499;SDS011;24269;51.894;4.622;2022-08-25T11:07:53;5.50;;;3.00;;
38499;SDS011;24269;51.894;4.622;2022-08-25T11:10:53;6.03;;;2.83;;
38499;SDS011;24269;51.894;4.622;2022-08-25T11:16:17;7.65;;;2.85;;
38499;SDS011;24269;51.894;4.622;2022-08-25T11:18:49;6.90;;;2.55;;
38499;SDS011;24269;51.894;4.622;2022-08-25T11:24:14;6.88;;;2.60;;
38499;SDS011;24269;51.894;4.622;2022-08-25T11:26:56;8.73;;;2.83;;
38499;SDS011;24269;51.894;4.622;2022-08-25T11:29:23;5.53;;;2.72;;
38499;SDS011;24269;51.894;4.622;2022-08-25T11:31:54;6.88;;;2.75;;
38499;SDS011;24269;51.894;4.622;2022-08-25T11:34:24;4.57;;;2.50;;
38499;SDS011;24269;51.894;4.622;2022-08-25T11:36:59;5.82;;;2.47;;
38499;SDS011;24269;51.894;4.622;2022-08-25T11:39:39;4.88;;;2.45;;
38499;SDS011;24269;51.894;4.622;2022-08-25T11:51:04;4.88;;;2.20;;
38499;SDS011;24269;51.894;4.622;2022-08-25T11:53:38;8.40;;;2.83;;
38499;SDS011;24269;51.894;4.622;2022-08-25T12:31:07;3.70;;;1.90;;
38499;SDS011;24269;51.894;4.622;2022-08-25T12:36:36;6.47;;;2.50;;
38499;SDS011;24269;51.894;4.622;2022-08-25T12:39:13;5.53;;;2.22;;
38499;SDS011;24269;51.894;4.622;2022-08-25T12:41:53;5.32;;;2.38;;
38499;SDS011;24269;51.894;4.622;2022-08-25T12:49:37;6.88;;;2.50;;
38499;SDS011;24269;51.894;4.622;2022-08-25T12:57:00;3.92;;;2.03;;
38499;SDS011;24269;51.894;4.622;2022-08-25T12:59:37;7.40;;;2.40;;
38499;SDS011;24269;51.894;4.622;2022-08-25T13:02:34;7.68;;;2.70;;
38499;SDS011;24269;51.894;4.622;2022-08-25T13:16:16;6.05;;;2.60;;
38499;SDS011;24269;51.894;4.622;2022-08-25T13:18:47;8.73;;;2.63;;
38499;SDS011;24269;51.894;4.622;2022-08-25T13:21:22;6.97;;;2.50;;
38499;SDS011;24269;51.894;4.622;2022-08-25T13:23:52;9.13;;;2.65;;
38499;SDS011;24269;51.894;4.622;2022-08-25T13:26:21;8.95;;;2.70;;
38499;SDS011;24269;51.894;4.622;2022-08-25T13:28:56;5.47;;;2.28;;
38499;SDS011;24269;51.894;4.622;2022-08-25T13:31:24;7.60;;;2.50;;
38499;SDS011;24269;51.894;4.622;2022-08-25T13:34:04;9.13;;;2.47;;
38499;SDS011;24269;51.894;4.622;2022-08-25T13:36:33;7.38;;;2.70;;
38499;SDS011;24269;51.894;4.622;2022-08-25T13:39:25;6.68;;;2.75;;
38499;SDS011;24269;51.894;4.622;2022-08-25T13:41:53;5.32;;;2.60;;
38499;SDS011;24269;51.894;4.622;2022-08-25T13:44:21;7.63;;;2.65;;
38499;SDS011;24269;51.894;4.622;2022-08-25T13:47:13;5.00;;;2.63;;
38499;SDS011;24269;51.894;4.622;2022-08-25T13:49:41;7.67;;;2.33;;
38499;SDS011;24269;51.894;4.622;2022-08-25T13:52:14;7.93;;;2.88;;
38499;SDS011;24269;51.894;4.622;2022-08-25T13:54:49;7.63;;;2.80;;
38499;SDS011;24269;51.894;4.622;2022-08-25T13:57:16;8.30;;;3.00;;
38499;SDS011;24269;51.894;4.622;2022-08-25T13:59:47;7.40;;;2.70;;
38499;SDS011;24269;51.894;4.622;2022-08-25T14:02:37;7.30;;;2.90;;
38499;SDS011;24269;51.894;4.622;2022-08-25T14:05:15;7.20;;;3.00;;
38499;SDS011;24269;51.894;4.622;2022-08-25T14:07:57;8.68;;;3.00;;
38499;SDS011;24269;51.894;4.622;2022-08-25T14:10:39;9.25;;;2.95;;
38499;SDS011;24269;51.894;4.622;2022-08-25T14:13:09;7.75;;;2.97;;
38499;SDS011;24269;51.894;4.622;2022-08-25T14:18:33;6.88;;;2.60;;
38499;SDS011;24269;51.894;4.622;2022-08-25T14:20:59;7.15;;;3.08;;
38499;SDS011;24269;51.894;4.622;2022-08-25T14:23:32;8.80;;;2.60;;
38499;SDS011;24269;51.894;4.622;2022-08-25T14:26:00;5.90;;;2.95;;
38499;SDS011;24269;51.894;4.622;2022-08-25T14:28:27;6.00;;;2.80;;
38499;SDS011;24269;51.894;4.622;2022-08-25T14:33:48;6.32;;;2.90;;
38499;SDS011;24269;51.894;4.622;2022-08-25T14:36:27;5.82;;;2.95;;
38499;SDS011;24269;51.894;4.622;2022-08-25T14:38:54;7.10;;;2.92;;
38499;SDS011;24269;51.894;4.622;2022-08-25T14:41:20;7.40;;;3.28;;
38499;SDS011;24269;51.894;4.622;2022-08-25T14:43:47;5.60;;;3.05;;
38499;SDS011;24269;51.894;4.622;2022-08-25T14:46:24;7.22;;;3.28;;
38499;SDS011;24269;51.894;4.622;2022-08-25T14:48:58;7.22;;;3.22;;
38499;SDS011;24269;51.894;4.622;2022-08-25T14:51:27;6.50;;;2.90;;
38499;SDS011;24269;51.894;4.622;2022-08-25T14:53:54;6.50;;;3.08;;
38499;SDS011;24269;51.894;4.622;2022-08-25T14:56:23;6.43;;;3.30;;
38499;SDS011;24269;51.894;4.622;2022-08-25T14:58:48;8.90;;;2.92;;
38499;SDS011;24269;51.894;4.622;2022-08-25T15:01:15;7.97;;;2.80;;
38499;SDS011;24269;51.894;4.622;2022-08-25T15:03:42;5.90;;;2.88;;
38499;SDS011;24269;51.894;4.622;2022-08-25T15:06:11;8.63;;;3.03;;
38499;SDS011;24269;51.894;4.622;2022-08-25T15:08:39;7.40;;;2.95;;
38499;SDS011;24269;51.894;4.622;2022-08-25T15:11:23;6.25;;;3.20;;
38499;SDS011;24269;51.894;4.622;2022-08-25T15:13:49;6.53;;;3.15;;
38499;SDS011;24269;51.894;4.622;2022-08-25T15:19:11;7.45;;;3.28;;
38499;SDS011;24269;51.894;4.622;2022-08-25T15:21:40;9.73;;;3.20;;
38499;SDS011;24269;51.894;4.622;2022-08-25T15:24:07;11.48;;;4.28;;
38499;SDS011;24269;51.894;4.622;2022-08-25T15:26:34;8.65;;;4.63;;
38499;SDS011;24269;51.894;4.622;2022-08-25T15:29:06;9.15;;;4.57;;
38499;SDS011;24269;51.894;4.622;2022-08-25T15:31:32;12.85;;;6.32;;
38499;SDS011;24269;51.894;4.622;2022-08-25T15:33:57;11.95;;;7.88;;
38499;SDS011;24269;51.894;4.622;2022-08-25T15:36:23;11.35;;;7.18;;
38499;SDS011;24269;51.894;4.622;2022-08-25T15:38:50;13.45;;;8.20;;
38499;SDS011;24269;51.894;4.622;2022-08-25T15:41:17;12.23;;;9.93;;
38499;SDS011;24269;51.894;4.622;2022-08-25T15:43:43;18.40;;;10.73;;
38499;SDS011;24269;51.894;4.622;2022-08-25T15:46:09;13.70;;;10.80;;
38499;SDS011;24269;51.894;4.622;2022-08-25T15:48:40;13.93;;;10.07;;
38499;SDS011;24269;51.894;4.622;2022-08-25T15:51:06;14.23;;;11.75;;
38499;SDS011;24269;51.894;4.622;2022-08-25T15:53:32;16.63;;;13.35;;
38499;SDS011;24269;51.894;4.622;2022-08-25T15:55:58;17.95;;;16.05;;
38499;SDS011;24269;51.894;4.622;2022-08-25T15:58:25;18.65;;;13.65;;
38499;SDS011;24269;51.894;4.622;2022-08-25T16:00:51;18.10;;;16.20;;
38499;SDS011;24269;51.894;4.622;2022-08-25T16:03:17;20.40;;;15.93;;
38499;SDS011;24269;51.894;4.622;2022-08-25T16:05:43;17.75;;;14.32;;
38499;SDS011;24269;51.894;4.622;2022-08-25T16:08:10;18.58;;;13.85;;
38499;SDS011;24269;51.894;4.622;2022-08-25T16:10:37;18.58;;;13.80;;
38499;SDS011;24269;51.894;4.622;2022-08-25T16:13:04;18.52;;;14.48;;
38499;SDS011;24269;51.894;4.622;2022-08-25T16:15:31;22.50;;;16.20;;
38499;SDS011;24269;51.894;4.622;2022-08-25T16:17:57;19.08;;;15.25;;
38499;SDS011;24269;51.894;4.622;2022-08-25T16:20:24;21.10;;;16.50;;
38499;SDS011;24269;51.894;4.622;2022-08-25T16:22:51;25.25;;;19.85;;
38499;SDS011;24269;51.894;4.622;2022-08-25T16:25:16;22.23;;;18.92;;
38499;SDS011;24269;51.894;4.622;2022-08-25T16:27:42;24.00;;;20.15;;
38499;SDS011;24269;51.894;4.622;2022-08-25T16:30:08;22.42;;;18.38;;
38499;SDS011;24269;51.894;4.622;2022-08-25T16:32:36;22.17;;;19.85;;
38499;SDS011;24269;51.894;4.622;2022-08-25T16:35:02;23.27;;;19.05;;
38499;SDS011;24269;51.894;4.622;2022-08-25T16:37:31;22.60;;;17.33;;
38499;SDS011;24269;51.894;4.622;2022-08-25T16:39:57;22.77;;;18.27;;
38499;SDS011;24269;51.894;4.622;2022-08-25T16:42:23;21.98;;;18.60;;
38499;SDS011;24269;51.894;4.622;2022-08-25T16:44:50;21.27;;;19.08;;
38499;SDS011;24269;51.894;4.622;2022-08-25T16:47:15;21.15;;;18.13;;
38499;SDS011;24269;51.894;4.622;2022-08-25T16:49:42;23.20;;;17.38;;
38499;SDS011;24269;51.894;4.622;2022-08-25T16:52:07;20.45;;;17.45;;
38499;SDS011;24269;51.894;4.622;2022-08-25T16:54:52;23.95;;;20.42;;
38499;SDS011;24269;51.894;4.622;2022-08-25T16:57:37;26.55;;;20.92;;
38499;SDS011;24269;51.894;4.622;2022-08-25T17:00:04;23.30;;;18.80;;
38499;SDS011;24269;51.894;4.622;2022-08-25T17:02:31;23.15;;;18.00;;
38499;SDS011;24269;51.894;4.622;2022-08-25T17:04:57;23.63;;;19.50;;
38499;SDS011;24269;51.894;4.622;2022-08-25T17:07:23;26.15;;;19.70;;
38499;SDS011;24269;51.894;4.622;2022-08-25T17:09:49;29.35;;;21.85;;